sensor_id;sensor_type;location;lat;lon;timestamp;P1;durP1;ratioP1;P2;durP2;ratioP2
40204;SDS011;26963;42.666;23.366;2024-03-02T00:00:04;30.95;;;22.20;;
40204;SDS011;26963;42.666;23.366;2024-03-02T00:02:42;34.17;;;23.63;;
40204;SDS011;26963;42.666;23.366;2024-03-02T00:05:19;32.97;;;22.73;;
40204;SDS011;26963;42.666;23.366;2024-03-02T00:07:52;32.97;;;23.15;;
40204;SDS011;26963;42.666;23.366;2024-03-02T00:10:22;31.67;;;23.48;;
40204;SDS011;26963;42.666;23.366;2024-03-02T00:12:53;33.70;;;23.50;;
40204;SDS011;26963;42.666;23.366;2024-03-02T00:18:17;31.90;;;23.02;;
40204;SDS011;26963;42.666;23.366;2024-03-02T00:20:44;33.58;;;22.67;;
40204;SDS011;26963;42.666;23.366;2024-03-02T00:23:13;30.90;;;22.13;;
40204;SDS011;26963;42.666;23.366;2024-03-02T00:25:44;29.95;;;22.33;;
40204;SDS011;26963;42.666;23.366;2024-03-02T00:33:34;31.35;;;21.83;;
40204;SDS011;26963;42.666;23.366;2024-03-02T00:36:05;31.52;;;21.63;;
40204;SDS011;26963;42.666;23.366;2024-03-02T00:38:32;29.90;;;21.92;;
40204;SDS011;26963;42.666;23.366;2024-03-02T00:40:58;28.08;;;21.23;;
40204;SDS011;26963;42.666;23.366;2024-03-02T00:46:13;32.22;;;23.27;;
40204;SDS011;26963;42.666;23.366;2024-03-02T00:51:21;28.27;;;20.45;;
40204;SDS011;26963;42.666;23.366;2024-03-02T00:53:48;27.23;;;20.20;;
40204;SDS011;26963;42.666;23.366;2024-03-02T00:56:15;26.73;;;19.00;;
40204;SDS011;26963;42.666;23.366;2024-03-02T00:58:41;25.92;;;19.70;;
40204;SDS011;26963;42.666;23.366;2024-03-02T01:01:07;25.92;;;18.38;;
40204;SDS011;26963;42.666;23.366;2024-03-02T01:03:33;25.05;;;18.75;;
40204;SDS011;26963;42.666;23.366;2024-03-02T01:05:59;27.63;;;18.58;;
40204;SDS011;26963;42.666;23.366;2024-03-02T01:08:25;25.70;;;18.63;;
40204;SDS011;26963;42.666;23.366;2024-03-02T01:10:51;28.15;;;20.23;;
40204;SDS011;26963;42.666;23.366;2024-03-02T01:13:17;28.00;;;20.25;;
40204;SDS011;26963;42.666;23.366;2024-03-02T01:15:43;27.17;;;20.48;;
40204;SDS011;26963;42.666;23.366;2024-03-02T01:18:09;25.27;;;19.38;;
40204;SDS011;26963;42.666;23.366;2024-03-02T01:20:34;26.65;;;18.90;;
40204;SDS011;26963;42.666;23.366;2024-03-02T01:23:00;27.17;;;19.58;;
40204;SDS011;26963;42.666;23.366;2024-03-02T01:25:26;28.42;;;20.52;;
40204;SDS011;26963;42.666;23.366;2024-03-02T01:27:52;31.02;;;20.15;;
40204;SDS011;26963;42.666;23.366;2024-03-02T01:30:17;29.92;;;21.33;;
40204;SDS011;26963;42.666;23.366;2024-03-02T01:32:43;30.08;;;20.45;;
40204;SDS011;26963;42.666;23.366;2024-03-02T01:35:09;29.30;;;21.75;;
40204;SDS011;26963;42.666;23.366;2024-03-02T01:37:34;30.48;;;20.42;;
40204;SDS011;26963;42.666;23.366;2024-03-02T01:40:00;32.35;;;23.17;;
40204;SDS011;26963;42.666;23.366;2024-03-02T01:42:26;29.35;;;21.58;;
40204;SDS011;26963;42.666;23.366;2024-03-02T01:44:52;26.08;;;19.85;;
40204;SDS011;26963;42.666;23.366;2024-03-02T01:47:17;30.67;;;19.45;;
40204;SDS011;26963;42.666;23.366;2024-03-02T01:49:43;26.33;;;19.00;;
40204;SDS011;26963;42.666;23.366;2024-03-02T01:52:08;26.65;;;18.73;;
40204;SDS011;26963;42.666;23.366;2024-03-02T01:54:34;30.65;;;21.13;;
40204;SDS011;26963;42.666;23.366;2024-03-02T01:57:00;32.58;;;22.10;;
40204;SDS011;26963;42.666;23.366;2024-03-02T01:59:26;30.35;;;22.20;;
40204;SDS011;26963;42.666;23.366;2024-03-02T02:01:52;29.77;;;21.73;;
40204;SDS011;26963;42.666;23.366;2024-03-02T02:04:18;32.63;;;22.70;;
40204;SDS011;26963;42.666;23.366;2024-03-02T02:06:46;32.80;;;23.13;;
40204;SDS011;26963;42.666;23.366;2024-03-02T02:09:12;34.03;;;24.05;;
40204;SDS011;26963;42.666;23.366;2024-03-02T02:11:38;34.47;;;23.92;;
40204;SDS011;26963;42.666;23.366;2024-03-02T02:14:03;32.00;;;23.83;;
40204;SDS011;26963;42.666;23.366;2024-03-02T02:16:29;30.77;;;23.15;;
40204;SDS011;26963;42.666;23.366;2024-03-02T02:18:55;33.75;;;25.13;;
40204;SDS011;26963;42.666;23.366;2024-03-02T02:21:23;33.05;;;24.85;;
40204;SDS011;26963;42.666;23.366;2024-03-02T02:23:50;32.88;;;24.98;;
40204;SDS011;26963;42.666;23.366;2024-03-02T02:26:15;33.33;;;24.77;;
40204;SDS011;26963;42.666;23.366;2024-03-02T02:28:41;35.95;;;24.98;;
40204;SDS011;26963;42.666;23.366;2024-03-02T02:31:12;35.75;;;25.48;;
40204;SDS011;26963;42.666;23.366;2024-03-02T02:33:39;35.13;;;24.67;;
40204;SDS011;26963;42.666;23.366;2024-03-02T02:36:05;33.50;;;25.05;;
40204;SDS011;26963;42.666;23.366;2024-03-02T02:38:31;35.10;;;25.52;;
40204;SDS011;26963;42.666;23.366;2024-03-02T02:40:58;34.70;;;24.38;;
40204;SDS011;26963;42.666;23.366;2024-03-02T02:43:24;33.78;;;24.80;;
40204;SDS011;26963;42.666;23.366;2024-03-02T02:45:49;35.50;;;23.10;;
40204;SDS011;26963;42.666;23.366;2024-03-02T02:48:15;32.60;;;23.88;;
40204;SDS011;26963;42.666;23.366;2024-03-02T02:50:41;31.58;;;23.85;;
40204;SDS011;26963;42.666;23.366;2024-03-02T02:53:07;32.95;;;24.70;;
40204;SDS011;26963;42.666;23.366;2024-03-02T02:55:34;35.58;;;25.17;;
40204;SDS011;26963;42.666;23.366;2024-03-02T02:58:05;31.30;;;23.25;;
40204;SDS011;26963;42.666;23.366;2024-03-02T03:00:32;31.35;;;22.50;;
40204;SDS011;26963;42.666;23.366;2024-03-02T03:02:57;30.67;;;22.33;;
40204;SDS011;26963;42.666;23.366;2024-03-02T03:05:23;30.83;;;23.45;;
40204;SDS011;26963;42.666;23.366;2024-03-02T03:07:48;33.53;;;23.02;;
40204;SDS011;26963;42.666;23.366;2024-03-02T03:10:16;33.92;;;25.20;;
40204;SDS011;26963;42.666;23.366;2024-03-02T03:12:42;34.17;;;24.85;;
40204;SDS011;26963;42.666;23.366;2024-03-02T03:15:08;33.67;;;24.70;;
40204;SDS011;26963;42.666;23.366;2024-03-02T03:17:36;33.10;;;24.88;;
40204;SDS011;26963;42.666;23.366;2024-03-02T03:20:02;33.22;;;25.40;;
40204;SDS011;26963;42.666;23.366;2024-03-02T03:22:30;38.65;;;27.27;;
40204;SDS011;26963;42.666;23.366;2024-03-02T03:24:56;38.42;;;27.52;;
40204;SDS011;26963;42.666;23.366;2024-03-02T03:27:22;35.78;;;25.65;;
40204;SDS011;26963;42.666;23.366;2024-03-02T03:29:48;35.47;;;25.65;;
40204;SDS011;26963;42.666;23.366;2024-03-02T03:32:13;33.83;;;25.55;;
40204;SDS011;26963;42.666;23.366;2024-03-02T03:34:39;34.78;;;25.83;;
40204;SDS011;26963;42.666;23.366;2024-03-02T03:37:05;36.25;;;25.23;;
40204;SDS011;26963;42.666;23.366;2024-03-02T03:39:31;34.22;;;26.00;;
40204;SDS011;26963;42.666;23.366;2024-03-02T03:41:59;33.92;;;25.80;;
40204;SDS011;26963;42.666;23.366;2024-03-02T03:44:24;36.45;;;27.05;;
40204;SDS011;26963;42.666;23.366;2024-03-02T03:46:50;35.25;;;25.40;;
40204;SDS011;26963;42.666;23.366;2024-03-02T03:49:15;34.42;;;24.10;;
40204;SDS011;26963;42.666;23.366;2024-03-02T03:51:41;33.13;;;25.10;;
40204;SDS011;26963;42.666;23.366;2024-03-02T03:54:06;33.50;;;23.58;;
40204;SDS011;26963;42.666;23.366;2024-03-02T03:56:32;34.83;;;24.63;;
40204;SDS011;26963;42.666;23.366;2024-03-02T03:58:58;37.22;;;24.85;;
40204;SDS011;26963;42.666;23.366;2024-03-02T04:01:24;35.70;;;25.15;;
40204;SDS011;26963;42.666;23.366;2024-03-02T04:03:50;35.53;;;25.83;;
40204;SDS011;26963;42.666;23.366;2024-03-02T04:06:16;33.90;;;24.75;;
40204;SDS011;26963;42.666;23.366;2024-03-02T04:08:42;31.67;;;22.98;;
40204;SDS011;26963;42.666;23.366;2024-03-02T04:11:08;32.22;;;23.50;;
40204;SDS011;26963;42.666;23.366;2024-03-02T04:13:34;34.40;;;24.10;;
40204;SDS011;26963;42.666;23.366;2024-03-02T04:15:59;29.23;;;22.27;;
40204;SDS011;26963;42.666;23.366;2024-03-02T04:18:25;29.77;;;21.17;;
40204;SDS011;26963;42.666;23.366;2024-03-02T04:20:51;32.13;;;22.58;;
40204;SDS011;26963;42.666;23.366;2024-03-02T04:23:17;31.50;;;23.00;;
40204;SDS011;26963;42.666;23.366;2024-03-02T04:25:43;31.80;;;22.55;;
40204;SDS011;26963;42.666;23.366;2024-03-02T04:28:08;32.75;;;23.27;;
40204;SDS011;26963;42.666;23.366;2024-03-02T04:30:34;32.67;;;21.65;;
40204;SDS011;26963;42.666;23.366;2024-03-02T04:33:00;32.67;;;23.17;;
40204;SDS011;26963;42.666;23.366;2024-03-02T04:35:27;31.58;;;23.58;;
40204;SDS011;26963;42.666;23.366;2024-03-02T04:37:54;28.70;;;22.88;;
40204;SDS011;26963;42.666;23.366;2024-03-02T04:40:19;31.90;;;22.70;;
40204;SDS011;26963;42.666;23.366;2024-03-02T04:42:45;32.10;;;22.63;;
40204;SDS011;26963;42.666;23.366;2024-03-02T04:45:10;32.92;;;23.25;;
40204;SDS011;26963;42.666;23.366;2024-03-02T04:47:39;34.58;;;24.05;;
40204;SDS011;26963;42.666;23.366;2024-03-02T04:50:05;31.42;;;22.95;;
40204;SDS011;26963;42.666;23.366;2024-03-02T04:52:33;33.13;;;23.60;;
40204;SDS011;26963;42.666;23.366;2024-03-02T04:54:59;31.17;;;22.98;;
40204;SDS011;26963;42.666;23.366;2024-03-02T04:57:54;31.67;;;22.05;;
40204;SDS011;26963;42.666;23.366;2024-03-02T05:00:22;32.10;;;22.58;;
40204;SDS011;26963;42.666;23.366;2024-03-02T05:02:48;33.92;;;23.40;;
40204;SDS011;26963;42.666;23.366;2024-03-02T05:05:13;34.03;;;23.75;;
40204;SDS011;26963;42.666;23.366;2024-03-02T05:07:42;33.58;;;23.52;;
40204;SDS011;26963;42.666;23.366;2024-03-02T05:10:09;31.67;;;22.98;;
40204;SDS011;26963;42.666;23.366;2024-03-02T05:12:35;36.67;;;25.45;;
40204;SDS011;26963;42.666;23.366;2024-03-02T05:15:10;39.35;;;27.10;;
40204;SDS011;26963;42.666;23.366;2024-03-02T05:17:37;41.92;;;26.50;;
40204;SDS011;26963;42.666;23.366;2024-03-02T05:20:04;35.85;;;25.00;;
40204;SDS011;26963;42.666;23.366;2024-03-02T05:22:31;35.67;;;25.23;;
40204;SDS011;26963;42.666;23.366;2024-03-02T05:25:01;33.00;;;24.70;;
40204;SDS011;26963;42.666;23.366;2024-03-02T05:27:27;37.05;;;25.15;;
40204;SDS011;26963;42.666;23.366;2024-03-02T05:29:53;35.58;;;25.65;;
40204;SDS011;26963;42.666;23.366;2024-03-02T05:32:21;35.20;;;24.45;;
40204;SDS011;26963;42.666;23.366;2024-03-02T05:34:47;39.50;;;26.52;;
40204;SDS011;26963;42.666;23.366;2024-03-02T05:37:12;38.17;;;25.45;;
40204;SDS011;26963;42.666;23.366;2024-03-02T05:39:38;38.92;;;25.48;;
40204;SDS011;26963;42.666;23.366;2024-03-02T05:42:04;36.75;;;25.10;;
40204;SDS011;26963;42.666;23.366;2024-03-02T05:44:29;40.25;;;26.05;;
40204;SDS011;26963;42.666;23.366;2024-03-02T05:46:58;38.80;;;26.15;;
40204;SDS011;26963;42.666;23.366;2024-03-02T05:49:23;37.63;;;25.63;;
40204;SDS011;26963;42.666;23.366;2024-03-02T05:51:49;41.92;;;26.63;;
40204;SDS011;26963;42.666;23.366;2024-03-02T05:54:14;38.30;;;26.08;;
40204;SDS011;26963;42.666;23.366;2024-03-02T05:56:40;38.67;;;26.67;;
40204;SDS011;26963;42.666;23.366;2024-03-02T05:59:05;36.53;;;25.75;;
40204;SDS011;26963;42.666;23.366;2024-03-02T06:01:41;38.42;;;24.98;;
40204;SDS011;26963;42.666;23.366;2024-03-02T06:04:08;39.60;;;27.50;;
40204;SDS011;26963;42.666;23.366;2024-03-02T06:06:34;37.15;;;25.88;;
40204;SDS011;26963;42.666;23.366;2024-03-02T06:09:00;39.50;;;26.50;;
40204;SDS011;26963;42.666;23.366;2024-03-02T06:11:27;36.67;;;23.77;;
40204;SDS011;26963;42.666;23.366;2024-03-02T06:13:53;36.17;;;26.02;;
40204;SDS011;26963;42.666;23.366;2024-03-02T06:16:19;38.17;;;26.10;;
40204;SDS011;26963;42.666;23.366;2024-03-02T06:18:44;39.38;;;27.90;;
40204;SDS011;26963;42.666;23.366;2024-03-02T06:21:10;36.13;;;25.42;;
40204;SDS011;26963;42.666;23.366;2024-03-02T06:23:35;41.50;;;26.70;;
40204;SDS011;26963;42.666;23.366;2024-03-02T06:26:02;39.80;;;27.92;;
40204;SDS011;26963;42.666;23.366;2024-03-02T06:28:31;37.15;;;25.90;;
40204;SDS011;26963;42.666;23.366;2024-03-02T06:30:56;36.00;;;26.38;;
40204;SDS011;26963;42.666;23.366;2024-03-02T06:33:22;37.13;;;25.83;;
40204;SDS011;26963;42.666;23.366;2024-03-02T06:35:48;35.45;;;25.33;;
40204;SDS011;26963;42.666;23.366;2024-03-02T06:38:14;39.28;;;27.05;;
40204;SDS011;26963;42.666;23.366;2024-03-02T06:40:39;34.38;;;24.75;;
40204;SDS011;26963;42.666;23.366;2024-03-02T06:43:05;40.30;;;26.60;;
40204;SDS011;26963;42.666;23.366;2024-03-02T06:45:31;37.97;;;25.70;;
40204;SDS011;26963;42.666;23.366;2024-03-02T06:47:58;36.80;;;26.98;;
40204;SDS011;26963;42.666;23.366;2024-03-02T06:50:24;40.17;;;25.55;;
40204;SDS011;26963;42.666;23.366;2024-03-02T06:52:50;37.03;;;27.45;;
40204;SDS011;26963;42.666;23.366;2024-03-02T06:55:15;36.65;;;25.42;;
40204;SDS011;26963;42.666;23.366;2024-03-02T06:57:41;36.25;;;25.23;;
40204;SDS011;26963;42.666;23.366;2024-03-02T07:00:07;39.22;;;26.30;;
40204;SDS011;26963;42.666;23.366;2024-03-02T07:02:34;38.95;;;25.70;;
40204;SDS011;26963;42.666;23.366;2024-03-02T07:05:01;41.40;;;25.52;;
40204;SDS011;26963;42.666;23.366;2024-03-02T07:07:29;41.95;;;28.83;;
40204;SDS011;26963;42.666;23.366;2024-03-02T07:09:54;41.30;;;27.40;;
40204;SDS011;26963;42.666;23.366;2024-03-02T07:12:20;39.83;;;27.20;;
40204;SDS011;26963;42.666;23.366;2024-03-02T07:14:45;40.72;;;27.25;;
40204;SDS011;26963;42.666;23.366;2024-03-02T07:17:36;40.03;;;25.58;;
40204;SDS011;26963;42.666;23.366;2024-03-02T07:20:02;42.63;;;26.95;;
40204;SDS011;26963;42.666;23.366;2024-03-02T07:22:30;43.28;;;28.50;;
40204;SDS011;26963;42.666;23.366;2024-03-02T07:24:56;41.88;;;28.75;;
40204;SDS011;26963;42.666;23.366;2024-03-02T07:27:21;42.35;;;28.27;;
40204;SDS011;26963;42.666;23.366;2024-03-02T07:29:47;41.28;;;27.95;;
40204;SDS011;26963;42.666;23.366;2024-03-02T07:32:12;43.22;;;28.75;;
40204;SDS011;26963;42.666;23.366;2024-03-02T07:34:38;47.13;;;29.30;;
40204;SDS011;26963;42.666;23.366;2024-03-02T07:37:04;45.22;;;28.60;;
40204;SDS011;26963;42.666;23.366;2024-03-02T07:39:29;39.97;;;27.20;;
40204;SDS011;26963;42.666;23.366;2024-03-02T07:41:55;39.95;;;27.35;;
40204;SDS011;26963;42.666;23.366;2024-03-02T07:44:21;42.00;;;27.55;;
40204;SDS011;26963;42.666;23.366;2024-03-02T07:46:47;39.90;;;27.65;;
40204;SDS011;26963;42.666;23.366;2024-03-02T07:49:15;43.20;;;26.13;;
40204;SDS011;26963;42.666;23.366;2024-03-02T07:51:41;39.08;;;25.50;;
40204;SDS011;26963;42.666;23.366;2024-03-02T07:54:08;39.40;;;26.23;;
40204;SDS011;26963;42.666;23.366;2024-03-02T07:56:34;41.25;;;26.80;;
40204;SDS011;26963;42.666;23.366;2024-03-02T07:59:00;40.50;;;25.50;;
40204;SDS011;26963;42.666;23.366;2024-03-02T08:01:30;40.85;;;25.80;;
40204;SDS011;26963;42.666;23.366;2024-03-02T08:03:57;38.58;;;25.40;;
40204;SDS011;26963;42.666;23.366;2024-03-02T08:06:26;36.30;;;25.00;;
40204;SDS011;26963;42.666;23.366;2024-03-02T08:08:56;37.25;;;25.60;;
40204;SDS011;26963;42.666;23.366;2024-03-02T08:11:23;37.20;;;25.48;;
40204;SDS011;26963;42.666;23.366;2024-03-02T08:13:49;38.85;;;25.98;;
40204;SDS011;26963;42.666;23.366;2024-03-02T08:16:18;36.92;;;24.05;;
40204;SDS011;26963;42.666;23.366;2024-03-02T08:18:45;39.05;;;24.42;;
40204;SDS011;26963;42.666;23.366;2024-03-02T08:21:12;36.50;;;24.90;;
40204;SDS011;26963;42.666;23.366;2024-03-02T08:23:39;34.97;;;24.50;;
40204;SDS011;26963;42.666;23.366;2024-03-02T08:26:07;40.00;;;25.42;;
40204;SDS011;26963;42.666;23.366;2024-03-02T08:28:33;39.97;;;24.65;;
40204;SDS011;26963;42.666;23.366;2024-03-02T08:31:02;33.30;;;22.67;;
40204;SDS011;26963;42.666;23.366;2024-03-02T08:33:29;35.40;;;23.45;;
40204;SDS011;26963;42.666;23.366;2024-03-02T08:35:54;36.88;;;24.30;;
40204;SDS011;26963;42.666;23.366;2024-03-02T08:38:21;34.40;;;23.25;;
40204;SDS011;26963;42.666;23.366;2024-03-02T08:40:46;32.63;;;23.08;;
40204;SDS011;26963;42.666;23.366;2024-03-02T08:43:12;33.40;;;23.15;;
40204;SDS011;26963;42.666;23.366;2024-03-02T08:45:39;37.67;;;24.02;;
40204;SDS011;26963;42.666;23.366;2024-03-02T08:48:06;38.47;;;24.02;;
40204;SDS011;26963;42.666;23.366;2024-03-02T08:50:33;32.63;;;22.23;;
40204;SDS011;26963;42.666;23.366;2024-03-02T08:53:00;35.87;;;25.60;;
40204;SDS011;26963;42.666;23.366;2024-03-02T08:55:26;37.00;;;24.35;;
40204;SDS011;26963;42.666;23.366;2024-03-02T08:57:52;36.50;;;24.50;;
40204;SDS011;26963;42.666;23.366;2024-03-02T09:00:17;36.40;;;25.33;;
40204;SDS011;26963;42.666;23.366;2024-03-02T09:02:44;39.92;;;28.25;;
40204;SDS011;26963;42.666;23.366;2024-03-02T09:05:10;34.15;;;23.73;;
40204;SDS011;26963;42.666;23.366;2024-03-02T09:07:36;36.30;;;24.27;;
40204;SDS011;26963;42.666;23.366;2024-03-02T09:10:03;38.72;;;24.45;;
40204;SDS011;26963;42.666;23.366;2024-03-02T09:12:29;34.80;;;24.00;;
40204;SDS011;26963;42.666;23.366;2024-03-02T09:14:54;34.38;;;22.30;;
40204;SDS011;26963;42.666;23.366;2024-03-02T09:17:20;32.78;;;23.60;;
40204;SDS011;26963;42.666;23.366;2024-03-02T09:19:46;34.13;;;22.55;;
40204;SDS011;26963;42.666;23.366;2024-03-02T09:22:12;34.50;;;22.67;;
40204;SDS011;26963;42.666;23.366;2024-03-02T09:24:38;38.05;;;25.52;;
40204;SDS011;26963;42.666;23.366;2024-03-02T09:27:04;33.75;;;25.05;;
40204;SDS011;26963;42.666;23.366;2024-03-02T09:29:29;30.77;;;21.15;;
40204;SDS011;26963;42.666;23.366;2024-03-02T09:31:56;33.38;;;23.10;;
40204;SDS011;26963;42.666;23.366;2024-03-02T09:34:21;32.05;;;21.75;;
40204;SDS011;26963;42.666;23.366;2024-03-02T09:36:47;32.47;;;23.05;;
40204;SDS011;26963;42.666;23.366;2024-03-02T09:39:13;35.55;;;23.65;;
40204;SDS011;26963;42.666;23.366;2024-03-02T09:41:39;38.13;;;24.80;;
40204;SDS011;26963;42.666;23.366;2024-03-02T09:44:05;37.95;;;24.13;;
40204;SDS011;26963;42.666;23.366;2024-03-02T09:46:31;36.25;;;25.00;;
40204;SDS011;26963;42.666;23.366;2024-03-02T09:48:58;40.90;;;25.63;;
40204;SDS011;26963;42.666;23.366;2024-03-02T09:51:24;41.67;;;28.02;;
40204;SDS011;26963;42.666;23.366;2024-03-02T09:53:51;35.15;;;24.77;;
40204;SDS011;26963;42.666;23.366;2024-03-02T09:56:16;37.10;;;25.35;;
40204;SDS011;26963;42.666;23.366;2024-03-02T09:58:43;39.67;;;24.95;;
40204;SDS011;26963;42.666;23.366;2024-03-02T10:01:11;37.42;;;25.45;;
40204;SDS011;26963;42.666;23.366;2024-03-02T10:03:42;36.25;;;24.65;;
40204;SDS011;26963;42.666;23.366;2024-03-02T10:06:20;34.25;;;23.02;;
40204;SDS011;26963;42.666;23.366;2024-03-02T10:08:46;35.47;;;23.75;;
40204;SDS011;26963;42.666;23.366;2024-03-02T10:11:28;34.25;;;23.70;;
40204;SDS011;26963;42.666;23.366;2024-03-02T10:14:12;37.75;;;24.63;;
40204;SDS011;26963;42.666;23.366;2024-03-02T10:19:21;33.42;;;22.85;;
40204;SDS011;26963;42.666;23.366;2024-03-02T10:21:48;37.42;;;25.73;;
40204;SDS011;26963;42.666;23.366;2024-03-02T10:24:15;34.58;;;23.05;;
40204;SDS011;26963;42.666;23.366;2024-03-02T10:26:42;32.38;;;22.30;;
40204;SDS011;26963;42.666;23.366;2024-03-02T10:29:09;34.28;;;23.40;;
40204;SDS011;26963;42.666;23.366;2024-03-02T10:31:39;31.10;;;21.63;;
40204;SDS011;26963;42.666;23.366;2024-03-02T10:34:09;30.42;;;19.73;;
40204;SDS011;26963;42.666;23.366;2024-03-02T10:36:36;31.58;;;20.65;;
40204;SDS011;26963;42.666;23.366;2024-03-02T10:39:06;30.23;;;19.67;;
40204;SDS011;26963;42.666;23.366;2024-03-02T10:41:35;31.88;;;21.52;;
40204;SDS011;26963;42.666;23.366;2024-03-02T10:44:03;29.88;;;18.58;;
40204;SDS011;26963;42.666;23.366;2024-03-02T10:46:30;30.85;;;20.17;;
40204;SDS011;26963;42.666;23.366;2024-03-02T10:48:58;26.45;;;18.75;;
40204;SDS011;26963;42.666;23.366;2024-03-02T10:51:25;26.67;;;17.63;;
40204;SDS011;26963;42.666;23.366;2024-03-02T10:53:54;24.45;;;17.92;;
40204;SDS011;26963;42.666;23.366;2024-03-02T10:56:21;24.88;;;17.23;;
40204;SDS011;26963;42.666;23.366;2024-03-02T11:01:23;25.27;;;18.00;;
40204;SDS011;26963;42.666;23.366;2024-03-02T11:03:50;24.98;;;17.40;;
40204;SDS011;26963;42.666;23.366;2024-03-02T11:06:16;28.50;;;18.35;;
40204;SDS011;26963;42.666;23.366;2024-03-02T11:08:43;25.83;;;17.60;;
40204;SDS011;26963;42.666;23.366;2024-03-02T11:11:16;24.27;;;16.98;;
40204;SDS011;26963;42.666;23.366;2024-03-02T11:13:49;23.90;;;16.95;;
40204;SDS011;26963;42.666;23.366;2024-03-02T11:16:23;22.98;;;16.50;;
40204;SDS011;26963;42.666;23.366;2024-03-02T11:19:00;25.95;;;17.58;;
40204;SDS011;26963;42.666;23.366;2024-03-02T11:21:52;29.92;;;19.73;;
40204;SDS011;26963;42.666;23.366;2024-03-02T11:26:58;26.23;;;17.63;;
40204;SDS011;26963;42.666;23.366;2024-03-02T11:32:04;27.15;;;17.58;;
40204;SDS011;26963;42.666;23.366;2024-03-02T11:34:32;25.10;;;18.33;;
40204;SDS011;26963;42.666;23.366;2024-03-02T11:36:59;24.15;;;17.35;;
40204;SDS011;26963;42.666;23.366;2024-03-02T11:39:26;27.42;;;18.05;;
40204;SDS011;26963;42.666;23.366;2024-03-02T11:41:53;28.52;;;18.05;;
40204;SDS011;26963;42.666;23.366;2024-03-02T11:44:19;23.92;;;17.13;;
40204;SDS011;26963;42.666;23.366;2024-03-02T11:46:45;24.50;;;16.90;;
40204;SDS011;26963;42.666;23.366;2024-03-02T11:49:15;27.90;;;17.65;;
40204;SDS011;26963;42.666;23.366;2024-03-02T11:51:50;23.65;;;16.73;;
40204;SDS011;26963;42.666;23.366;2024-03-02T11:54:25;26.08;;;19.05;;
40204;SDS011;26963;42.666;23.366;2024-03-02T11:56:55;30.17;;;21.65;;
40204;SDS011;26963;42.666;23.366;2024-03-02T11:59:21;22.42;;;16.13;;
40204;SDS011;26963;42.666;23.366;2024-03-02T12:01:48;22.38;;;16.38;;
40204;SDS011;26963;42.666;23.366;2024-03-02T12:04:15;15.98;;;13.02;;
40204;SDS011;26963;42.666;23.366;2024-03-02T12:06:40;19.30;;;14.50;;
40204;SDS011;26963;42.666;23.366;2024-03-02T12:09:09;20.92;;;14.27;;
40204;SDS011;26963;42.666;23.366;2024-03-02T12:11:37;19.73;;;13.68;;
40204;SDS011;26963;42.666;23.366;2024-03-02T12:14:02;19.50;;;13.73;;
40204;SDS011;26963;42.666;23.366;2024-03-02T12:16:29;17.17;;;12.80;;
40204;SDS011;26963;42.666;23.366;2024-03-02T12:18:55;18.80;;;14.15;;
40204;SDS011;26963;42.666;23.366;2024-03-02T12:21:21;18.67;;;13.80;;
40204;SDS011;26963;42.666;23.366;2024-03-02T12:23:47;18.77;;;13.68;;
40204;SDS011;26963;42.666;23.366;2024-03-02T12:26:15;20.77;;;15.18;;
40204;SDS011;26963;42.666;23.366;2024-03-02T12:28:40;19.25;;;13.23;;
40204;SDS011;26963;42.666;23.366;2024-03-02T12:31:06;19.08;;;13.45;;
40204;SDS011;26963;42.666;23.366;2024-03-02T12:33:33;17.45;;;13.05;;
40204;SDS011;26963;42.666;23.366;2024-03-02T12:35:58;16.50;;;12.73;;
40204;SDS011;26963;42.666;23.366;2024-03-02T12:38:24;16.42;;;12.88;;
40204;SDS011;26963;42.666;23.366;2024-03-02T12:40:51;18.13;;;12.68;;
40204;SDS011;26963;42.666;23.366;2024-03-02T12:43:17;15.20;;;12.10;;
40204;SDS011;26963;42.666;23.366;2024-03-02T12:45:43;18.02;;;13.73;;
40204;SDS011;26963;42.666;23.366;2024-03-02T12:48:08;19.50;;;15.00;;
40204;SDS011;26963;42.666;23.366;2024-03-02T12:50:34;18.15;;;13.60;;
40204;SDS011;26963;42.666;23.366;2024-03-02T12:53:00;18.60;;;13.50;;
40204;SDS011;26963;42.666;23.366;2024-03-02T12:55:26;17.33;;;12.85;;
40204;SDS011;26963;42.666;23.366;2024-03-02T12:57:53;16.80;;;12.45;;
40204;SDS011;26963;42.666;23.366;2024-03-02T13:00:19;17.15;;;11.85;;
40204;SDS011;26963;42.666;23.366;2024-03-02T13:02:46;16.05;;;12.48;;
40204;SDS011;26963;42.666;23.366;2024-03-02T13:05:12;17.77;;;13.90;;
40204;SDS011;26963;42.666;23.366;2024-03-02T13:07:38;17.33;;;12.65;;
40204;SDS011;26963;42.666;23.366;2024-03-02T13:10:05;17.83;;;13.90;;
40204;SDS011;26963;42.666;23.366;2024-03-02T13:12:34;18.70;;;14.65;;
40204;SDS011;26963;42.666;23.366;2024-03-02T13:15:01;17.35;;;13.35;;
40204;SDS011;26963;42.666;23.366;2024-03-02T13:17:28;17.42;;;13.63;;
40204;SDS011;26963;42.666;23.366;2024-03-02T13:19:55;18.00;;;12.15;;
40204;SDS011;26963;42.666;23.366;2024-03-02T13:22:21;17.83;;;12.48;;
40204;SDS011;26963;42.666;23.366;2024-03-02T13:24:50;17.25;;;14.00;;
40204;SDS011;26963;42.666;23.366;2024-03-02T13:27:17;19.02;;;14.57;;
40204;SDS011;26963;42.666;23.366;2024-03-02T13:29:46;20.70;;;14.23;;
40204;SDS011;26963;42.666;23.366;2024-03-02T13:32:13;17.00;;;12.68;;
40204;SDS011;26963;42.666;23.366;2024-03-02T13:34:42;15.38;;;12.43;;
40204;SDS011;26963;42.666;23.366;2024-03-02T13:37:08;21.83;;;16.67;;
40204;SDS011;26963;42.666;23.366;2024-03-02T13:39:34;22.40;;;16.55;;
40204;SDS011;26963;42.666;23.366;2024-03-02T13:42:08;17.67;;;14.02;;
40204;SDS011;26963;42.666;23.366;2024-03-02T13:44:35;20.65;;;16.33;;
40204;SDS011;26963;42.666;23.366;2024-03-02T13:47:02;22.52;;;17.02;;
40204;SDS011;26963;42.666;23.366;2024-03-02T13:49:28;22.45;;;16.98;;
40204;SDS011;26963;42.666;23.366;2024-03-02T13:52:07;22.70;;;18.38;;
40204;SDS011;26963;42.666;23.366;2024-03-02T13:54:38;21.70;;;17.02;;
40204;SDS011;26963;42.666;23.366;2024-03-02T13:57:05;24.27;;;18.60;;
40204;SDS011;26963;42.666;23.366;2024-03-02T13:59:32;20.75;;;16.55;;
40204;SDS011;26963;42.666;23.366;2024-03-02T14:01:59;23.67;;;17.73;;
40204;SDS011;26963;42.666;23.366;2024-03-02T14:04:25;24.80;;;18.77;;
40204;SDS011;26963;42.666;23.366;2024-03-02T14:06:50;24.95;;;18.38;;
40204;SDS011;26963;42.666;23.366;2024-03-02T14:09:16;26.63;;;17.77;;
40204;SDS011;26963;42.666;23.366;2024-03-02T14:11:44;25.38;;;18.30;;
40204;SDS011;26963;42.666;23.366;2024-03-02T14:14:09;28.73;;;19.00;;
40204;SDS011;26963;42.666;23.366;2024-03-02T14:16:35;25.58;;;17.73;;
40204;SDS011;26963;42.666;23.366;2024-03-02T14:19:01;23.83;;;18.83;;
40204;SDS011;26963;42.666;23.366;2024-03-02T14:21:26;25.63;;;20.58;;
40204;SDS011;26963;42.666;23.366;2024-03-02T14:23:52;22.75;;;17.27;;
40204;SDS011;26963;42.666;23.366;2024-03-02T14:26:17;21.05;;;17.77;;
40204;SDS011;26963;42.666;23.366;2024-03-02T14:28:44;23.48;;;17.05;;
40204;SDS011;26963;42.666;23.366;2024-03-02T14:31:10;22.73;;;17.33;;